< < Back
Terminal Aerodrome Forecast


Current Version              Previous Versions:   1  2  3  4  5  6  7  8  9  

Terminal Aerodrome Forecast

459
FTUS42 KJAX 301720
TAFJAX
TAF
KJAX 301720Z 3018/0118 12012KT P6SM SCT045 BKN250
     FM010300 14005KT P6SM SCT060 SCT250
     FM010800 VRB02KT P6SM SCT040 SCT250
     FM011400 18008KT P6SM SCT040 BKN080=



Latest METAR

088
SAUS80 KWBC 010900 RRK
MTRJAX
METAR KJAX 010856Z 15005KT 10SM FEW060 BKN080 22/21 A3000 RMK AO2 SLP159
T02220206 56007


USA.gov is the U.S. government's official web portal to all federal, state and local government web resources and services.